Time;durP1;ratioP1;P1;durP2;ratioP2;P2;SDS_P1;SDS_P2;PMS_P1;PMS_P2;Temp;Humidity;BMP_temperature;BMP_pressure;BME280_temperature;BME280_humidity;BME280_pressure;Samples;Min_cycle;Max_cycle;Signal;HPM_P1;HPM_P2
2023/01/30 00:01:45;;;;;;;2.55;2.45;;;1.40;99.90;;;1.13;nan;101397.34;4895540;29;20313;-68
2023/01/30 00:04:12;;;;;;;1.90;1.80;;;1.40;99.90;;;1.17;nan;101409.25;4896726;29;20312;-67
2023/01/30 00:06:43;;;;;;;4.70;3.55;;;1.40;99.90;;;1.25;nan;101403.97;4895499;29;20210;-67
2023/01/30 00:09:13;;;;;;;8.98;4.90;;;1.50;99.90;;;1.33;nan;101404.66;4877724;29;20243;-67
2023/01/30 00:11:41;;;;;;;6.65;4.30;;;1.60;99.90;;;1.40;nan;101416.50;4877705;29;20235;-70
2023/01/30 00:14:08;;;;;;;9.25;5.43;;;1.60;99.90;;;1.47;nan;101423.16;4887451;29;20207;-65
2023/01/30 00:16:35;;;;;;;6.40;4.10;;;1.70;99.90;;;1.54;nan;101424.72;4881431;29;20218;-66
2023/01/30 00:19:02;;;;;;;1.65;1.27;;;1.80;99.90;;;1.58;nan;101420.38;4897146;29;20211;-65
2023/01/30 00:21:29;;;;;;;2.03;1.92;;;1.80;99.90;;;1.58;nan;101404.06;4897342;29;20281;-66
2023/01/30 00:23:56;;;;;;;1.45;1.35;;;1.80;99.90;;;1.51;nan;101392.22;4895989;29;20206;-66
2023/01/30 00:26:23;;;;;;;0.98;0.90;;;1.80;99.90;;;1.48;nan;101391.44;4896474;29;20237;-68
2023/01/30 00:28:50;;;;;;;1.50;1.33;;;1.80;99.90;;;1.49;nan;101393.97;4895178;29;20241;-65
2023/01/30 00:31:17;;;;;;;4.70;2.85;;;1.70;99.90;;;1.52;nan;101400.78;4885236;29;20249;-68
2023/01/30 00:33:44;;;;;;;11.98;5.28;;;1.80;99.90;;;1.54;nan;101410.16;4896964;29;20258;-65
2023/01/30 00:36:11;;;;;;;3.05;1.67;;;1.80;99.90;;;1.58;nan;101407.53;4899782;29;20205;-66
2023/01/30 00:38:38;;;;;;;0.60;0.60;;;1.80;99.90;;;1.55;nan;101409.25;4901521;29;20207;-66
2023/01/30 00:41:05;;;;;;;1.35;1.25;;;1.80;99.90;;;1.48;nan;101400.00;4899866;29;20856;-66
2023/01/30 00:49:17;;;;;;;0.45;0.45;;;1.80;99.90;;;1.52;nan;101380.19;4870186;29;20703;-66
2023/01/30 00:51:45;;;;;;;1.75;0.75;;;1.80;99.90;;;1.50;nan;101364.81;4913139;29;20243;-65
2023/01/30 00:54:12;;;;;;;5.07;3.10;;;1.80;99.90;;;1.43;nan;101349.56;4895939;29;20672;-67
2023/01/30 00:56:39;;;;;;;3.70;1.60;;;1.70;99.90;;;1.44;nan;101352.09;4889966;29;20282;-65
2023/01/30 00:59:06;;;;;;;5.43;3.25;;;1.70;99.90;;;1.43;nan;101350.41;4895174;29;20218;-69
2023/01/30 01:01:33;;;;;;;0.90;0.85;;;1.70;99.90;;;1.38;nan;101316.25;4896630;29;20591;-65
2023/01/30 01:04:00;;;;;;;6.20;3.78;;;1.70;99.90;;;1.30;nan;101301.88;4895217;29;20230;-68
2023/01/30 01:06:27;;;;;;;2.40;1.48;;;1.60;99.90;;;1.25;nan;101301.13;4895732;29;20214;-69
2023/01/30 01:08:54;;;;;;;1.90;1.80;;;1.50;99.90;;;1.26;nan;101301.09;4896056;29;20246;-67
2023/01/30 01:11:23;;;;;;;1.67;1.58;;;1.50;99.90;;;1.24;nan;101297.72;4896581;29;20708;-67
2023/01/30 01:13:56;;;;;;;2.60;1.70;;;1.50;99.90;;;1.23;nan;101292.63;4896705;29;20217;-67
2023/01/30 01:16:25;;;;;;;1.58;0.75;;;1.50;99.90;;;1.22;nan;101286.63;4899295;29;20632;-66
2023/01/30 01:18:53;;;;;;;5.55;2.05;;;1.40;99.90;;;1.24;nan;101292.56;4877674;29;20211;-70
2023/01/30 01:21:21;;;;;;;6.85;3.47;;;1.50;99.90;;;1.29;nan;101295.03;4915031;29;20238;-66
2023/01/30 01:23:50;;;;;;;0.88;0.85;;;1.50;99.90;;;1.31;nan;101299.28;4898172;29;20310;-68
2023/01/30 01:26:18;;;;;;;0.80;0.80;;;1.60;99.90;;;1.27;nan;101292.53;4888015;29;20217;-65
2023/01/30 01:28:45;;;;;;;1.88;1.70;;;1.50;99.90;;;1.32;nan;101300.13;4904006;29;20652;-66
2023/01/30 01:31:15;;;;;;;10.57;4.90;;;1.50;99.90;;;1.36;nan;101302.56;4898644;29;20222;-66
2023/01/30 01:33:43;;;;;;;3.38;2.38;;;1.60;99.90;;;1.41;nan;101287.03;4888329;29;20199;-71
2023/01/30 01:36:10;;;;;;;8.38;5.80;;;1.70;99.90;;;1.41;nan;101293.03;4878646;29;20211;-65
2023/01/30 01:38:42;;;;;;;8.25;4.85;;;1.70;99.90;;;1.41;nan;101280.16;4902421;29;20207;-68
2023/01/30 01:41:12;;;;;;;9.00;6.30;;;1.70;99.90;;;1.43;nan;101285.25;4898145;29;20242;-69
2023/01/30 01:44:07;;;;;;;7.75;4.80;;;1.70;99.90;;;1.44;nan;101300.69;4888266;29;20207;-72
2023/01/30 01:46:43;;;;;;;8.55;5.40;;;1.70;99.90;;;1.49;nan;101303.97;4894119;29;20249;-66
2023/01/30 01:49:22;;;;;;;7.25;4.70;;;1.70;99.90;;;1.56;nan;101278.94;4869432;29;20283;-66
2023/01/30 01:52:08;;;;;;;9.40;5.45;;;1.80;99.90;;;1.62;nan;101283.09;4882754;29;20277;-67
2023/01/30 01:54:51;;;;;;;12.60;6.70;;;1.80;99.90;;;1.69;nan;101276.91;4891710;29;20203;-68
2023/01/30 01:57:34;;;;;;;6.50;4.00;;;1.90;99.90;;;1.73;nan;101293.94;4900213;29;20220;-67
2023/01/30 02:00:10;;;;;;;7.15;5.18;;;2.00;99.90;;;1.74;nan;101267.34;4890261;29;20207;-71
2023/01/30 02:02:56;;;;;;;7.30;4.57;;;2.00;99.90;;;1.79;nan;101257.81;4878498;29;20208;-67
2023/01/30 02:05:27;;;;;;;10.60;6.18;;;2.00;99.90;;;1.80;nan;101251.75;4881204;29;20241;-68
2023/01/30 02:08:19;;;;;;;9.35;5.25;;;2.00;99.90;;;1.83;nan;101251.69;4891010;29;20218;-66
2023/01/30 02:11:05;;;;;;;6.80;3.60;;;2.10;99.90;;;1.84;nan;101267.06;4907079;29;20229;-68
2023/01/30 02:13:33;;;;;;;8.95;5.47;;;2.10;99.90;;;1.88;nan;101255.81;4897776;29;20199;-67
2023/01/30 02:16:03;;;;;;;8.43;5.63;;;2.10;99.90;;;1.92;nan;101259.13;4899681;29;20214;-67
2023/01/30 02:18:33;;;;;;;6.22;4.72;;;2.20;99.90;;;1.93;nan;101248.81;4894641;29;20222;-67
2023/01/30 02:21:12;;;;;;;8.25;4.57;;;2.20;99.90;;;1.95;nan;101247.06;4876427;29;20237;-67
2023/01/30 02:24:11;;;;;;;11.00;5.97;;;2.20;99.90;;;1.92;nan;101257.41;4894426;29;20211;-66
2023/01/30 02:26:53;;;;;;;11.93;6.60;;;2.10;99.90;;;1.96;nan;101253.88;4848132;29;20218;-67
2023/01/30 02:30:12;;;;;;;9.48;4.40;;;2.20;99.90;;;1.96;nan;101242.75;4897520;29;20230;-67
2023/01/30 02:33:15;;;;;;;9.80;5.53;;;2.20;99.90;;;1.97;nan;101239.28;4868170;29;20208;-67
2023/01/30 02:36:20;;;;;;;8.45;4.50;;;2.20;99.90;;;1.95;nan;101235.91;4884652;29;20637;-67
2023/01/30 02:39:27;;;;;;;7.93;4.28;;;2.20;99.90;;;1.92;nan;101239.41;4893362;29;20277;-67
2023/01/30 02:42:13;;;;;;;4.47;3.55;;;2.20;99.90;;;1.93;nan;101235.09;4881900;29;20246;-66
2023/01/30 02:45:01;;;;;;;4.78;2.35;;;2.20;99.90;;;1.94;nan;101229.09;4896839;29;20222;-66
2023/01/30 02:47:43;;;;;;;1.92;1.55;;;2.20;99.90;;;1.85;nan;101230.19;4879198;29;20215;-68
2023/01/30 02:50:23;;;;;;;4.07;3.20;;;2.10;99.90;;;1.81;nan;101232.88;4896004;29;20238;-66
2023/01/30 02:52:51;;;;;;;4.75;3.05;;;2.10;99.90;;;1.81;nan;101241.41;4897582;29;20209;-67
2023/01/30 02:55:24;;;;;;;6.25;3.50;;;2.10;99.90;;;1.84;nan;101248.22;4899034;29;20195;-65
2023/01/30 02:57:51;;;;;;;4.78;3.67;;;2.10;99.90;;;1.83;nan;101246.53;4896450;29;20211;-66
2023/01/30 03:01:02;;;;;;;9.25;4.45;;;2.10;99.90;;;1.82;nan;101252.56;4903892;29;20826;-66
2023/01/30 03:03:56;;;;;;;12.55;4.45;;;2.10;99.90;;;1.81;nan;101261.19;4900246;29;20206;-67
2023/01/30 03:06:57;;;;;;;10.13;6.32;;;2.10;99.90;;;1.84;nan;101253.34;4904219;29;20258;-65
2023/01/30 03:09:39;;;;;;;0.73;0.73;;;2.10;99.90;;;1.82;nan;101244.84;4896710;29;20230;-66
2023/01/30 03:12:40;;;;;;;10.40;6.35;;;2.10;99.90;;;1.80;nan;101246.59;4897369;29;20293;-66
2023/01/30 03:15:16;;;;;;;2.55;1.90;;;2.10;99.90;;;1.73;nan;101243.34;4881882;29;20206;-67
2023/01/30 03:17:46;;;;;;;4.95;2.80;;;2.00;99.90;;;1.69;nan;101234.03;4927397;29;20209;-66
2023/01/30 03:20:15;;;;;;;6.82;4.07;;;2.00;99.90;;;1.64;nan;101238.44;4881615;29;20214;-66
2023/01/30 03:22:42;;;;;;;1.08;0.98;;;1.90;99.90;;;1.58;nan;101242.91;4903312;29;20215;-67
2023/01/30 03:25:20;;;;;;;1.45;1.35;;;1.80;99.90;;;1.53;nan;101249.00;4890093;29;20211;-67
2023/01/30 03:27:50;;;;;;;1.23;1.13;;;1.80;99.90;;;1.50;nan;101236.22;4895977;29;20243;-66
2023/01/30 03:30:17;;;;;;;2.05;1.65;;;1.80;99.90;;;1.49;nan;101224.25;4900792;29;20242;-66
2023/01/30 03:32:44;;;;;;;2.63;1.85;;;1.80;99.90;;;1.53;nan;101227.59;4896879;29;20246;-67
2023/01/30 03:35:11;;;;;;;7.13;3.88;;;1.80;99.90;;;1.50;nan;101220.81;4897005;29;20244;-66
2023/01/30 03:37:38;;;;;;;0.77;0.77;;;1.80;99.90;;;1.52;nan;101231.03;4893862;29;20224;-67
2023/01/30 03:40:06;;;;;;;1.90;1.80;;;1.80;99.90;;;1.48;nan;101224.28;4902423;29;20216;-66
2023/01/30 03:42:33;;;;;;;2.33;2.15;;;1.80;99.90;;;1.49;nan;101223.41;4896612;29;20299;-68
2023/01/30 03:45:00;;;;;;;4.03;3.60;;;1.80;99.90;;;1.44;nan;101222.69;4892236;29;20222;-66
2023/01/30 03:47:27;;;;;;;2.05;1.77;;;1.70;99.90;;;1.45;nan;101222.63;4896526;29;20746;-69
2023/01/30 03:49:54;;;;;;;6.25;3.45;;;1.70;99.90;;;1.37;nan;101223.72;4892467;29;20234;-67
2023/01/30 03:52:22;;;;;;;9.27;4.10;;;1.60;99.90;;;1.35;nan;101217.75;4885826;29;20221;-65
2023/01/30 03:54:49;;;;;;;5.35;1.75;;;1.60;99.90;;;1.36;nan;101212.56;4890849;29;20207;-67
2023/01/30 03:57:16;;;;;;;6.50;4.57;;;1.60;99.90;;;1.29;nan;101202.50;4896020;29;20261;-66
2023/01/30 03:59:43;;;;;;;4.05;2.35;;;1.60;99.90;;;1.25;nan;101209.44;4880331;29;20207;-66
2023/01/30 04:02:10;;;;;;;1.38;1.02;;;1.50;99.90;;;1.31;nan;101222.16;4883670;29;20238;-66
2023/01/30 04:04:37;;;;;;;1.98;1.30;;;1.50;99.90;;;1.34;nan;101211.78;4881795;29;20575;-67
2023/01/30 04:07:04;;;;;;;0.93;0.93;;;1.60;99.90;;;1.33;nan;101202.38;4888084;29;20739;-66
2023/01/30 04:09:30;;;;;;;1.65;1.55;;;1.60;99.90;;;1.32;nan;101203.25;4887704;29;20712;-66
2023/01/30 04:11:57;;;;;;;6.50;3.72;;;1.60;99.90;;;1.32;nan;101208.38;4886887;29;20261;-66
2023/01/30 04:14:24;;;;;;;10.40;5.85;;;1.50;99.90;;;1.36;nan;101215.16;4877950;29;20545;-66
2023/01/30 04:16:51;;;;;;;13.48;7.28;;;1.60;99.90;;;1.45;nan;101214.91;4881759;29;20246;-65
2023/01/30 04:19:18;;;;;;;12.77;5.82;;;1.70;99.90;;;1.48;nan;101217.44;4897807;29;20214;-67
2023/01/30 04:21:45;;;;;;;1.63;1.52;;;1.70;99.90;;;1.55;nan;101206.06;4908293;29;20230;-64
2023/01/30 04:24:12;;;;;;;0.55;0.55;;;1.80;99.90;;;1.57;nan;101198.34;4903649;29;20236;-70
2023/01/30 04:26:39;;;;;;;6.18;3.38;;;1.80;99.90;;;1.61;nan;101206.81;4895755;29;20207;-66
2023/01/30 04:29:07;;;;;;;1.55;0.68;;;1.90;99.90;;;1.60;nan;101210.28;4894991;29;20238;-68
2023/01/30 04:31:34;;;;;;;3.55;1.13;;;1.80;99.90;;;1.52;nan;101202.75;4906964;29;20602;-68
2023/01/30 04:34:01;;;;;;;10.75;2.40;;;1.80;99.90;;;1.48;nan;101201.16;4899827;29;20210;-66
2023/01/30 04:36:28;;;;;;;2.83;2.58;;;1.80;99.90;;;1.47;nan;101192.56;4896407;29;20202;-71
2023/01/30 04:38:57;;;;;;;1.08;0.90;;;1.70;99.90;;;1.44;nan;101182.38;4895059;29;20213;-66
2023/01/30 04:41:23;;;;;;;5.18;3.10;;;1.70;99.90;;;1.42;nan;101183.31;4901551;29;20229;-67
2023/01/30 04:43:50;;;;;;;6.38;4.13;;;1.70;99.90;;;1.46;nan;101185.75;4903364;29;20258;-67
2023/01/30 04:46:17;;;;;;;1.55;1.45;;;1.70;99.90;;;1.45;nan;101191.78;4902415;29;20678;-66
2023/01/30 04:48:45;;;;;;;1.45;0.75;;;1.70;99.90;;;1.46;nan;101185.75;4899891;29;20234;-66
2023/01/30 04:51:12;;;;;;;3.17;1.73;;;1.70;99.90;;;1.49;nan;101169.41;4895173;29;20701;-66
2023/01/30 04:53:39;;;;;;;0.50;0.50;;;1.80;99.90;;;1.45;nan;101168.63;4892453;29;20210;-66
2023/01/30 04:56:06;;;;;;;6.93;4.03;;;1.70;99.90;;;1.42;nan;101148.16;4894346;29;20207;-66
2023/01/30 04:58:33;;;;;;;6.05;3.35;;;1.70;99.90;;;1.42;nan;101148.16;4905244;29;20203;-67
2023/01/30 05:01:25;;;;;;;0.60;0.60;;;1.70;99.90;;;1.41;nan;101161.88;4899472;29;20237;-65
2023/01/30 05:03:53;;;;;;;0.70;0.70;;;1.70;99.90;;;1.48;nan;101157.44;4881995;29;20870;-66
2023/01/30 05:06:21;;;;;;;1.10;1.10;;;1.70;99.90;;;1.50;nan;101160.81;4905046;29;20264;-67
2023/01/30 05:08:54;;;;;;;2.80;1.50;;;1.70;99.90;;;1.53;nan;101161.56;4889259;29;20219;-66
2023/01/30 05:11:22;;;;;;;1.80;1.70;;;1.80;99.90;;;1.53;nan;101150.44;4895752;29;20236;-66
2023/01/30 05:13:49;;;;;;;1.27;1.25;;;1.80;99.90;;;1.52;nan;101138.47;4902673;29;20207;-66
2023/01/30 05:16:18;;;;;;;2.88;2.22;;;1.70;99.90;;;1.53;nan;101140.97;4898007;29;20746;-66
2023/01/30 05:18:47;;;;;;;0.60;0.52;;;1.80;99.90;;;1.61;nan;101133.06;4894489;29;20246;-67
2023/01/30 05:21:20;;;;;;;2.63;1.42;;;1.80;99.90;;;1.56;nan;101135.75;4896408;29;20232;-66
2023/01/30 05:23:47;;;;;;;6.00;3.15;;;1.80;99.90;;;1.61;nan;101127.06;4899043;29;20242;-66
2023/01/30 05:26:14;;;;;;;1.55;1.45;;;1.80;99.90;;;1.58;nan;101112.56;4880170;29;20211;-67
2023/01/30 05:28:42;;;;;;;8.32;3.90;;;1.80;99.90;;;1.58;nan;101109.19;4888071;29;20217;-67
2023/01/30 05:31:13;;;;;;;3.35;2.13;;;1.80;99.90;;;1.51;nan;101116.22;4900802;29;20706;-66
2023/01/30 05:33:40;;;;;;;5.85;3.30;;;1.80;99.90;;;1.48;nan;101109.41;4901623;29;20213;-67
2023/01/30 05:36:14;;;;;;;3.22;2.35;;;1.70;99.90;;;1.44;nan;101112.97;4917461;29;20699;-66
2023/01/30 05:38:44;;;;;;;8.32;3.55;;;1.70;99.90;;;1.50;nan;101114.50;4880407;29;20215;-67
2023/01/30 05:41:13;;;;;;;2.35;1.08;;;1.70;99.90;;;1.57;nan;101110.91;4903239;29;20479;-66
2023/01/30 05:43:41;;;;;;;1.05;0.85;;;1.80;99.90;;;1.56;nan;101099.75;4898424;29;20210;-66
2023/01/30 05:46:11;;;;;;;3.80;1.38;;;1.80;99.90;;;1.60;nan;101120.25;4898451;29;20215;-69
2023/01/30 05:48:38;;;;;;;1.05;0.98;;;1.80;99.90;;;1.61;nan;101133.06;4898369;29;20199;-68
2023/01/30 05:51:13;;;;;;;1.85;0.73;;;1.90;99.90;;;1.64;nan;101137.28;4898592;29;20242;-65
2023/01/30 05:53:40;;;;;;;9.38;4.65;;;1.90;99.90;;;1.68;nan;101137.19;4879687;29;20214;-66
2023/01/30 05:56:08;;;;;;;1.85;1.17;;;1.90;99.90;;;1.68;nan;101126.03;4899463;29;20206;-65
2023/01/30 05:58:35;;;;;;;1.75;1.25;;;1.90;99.90;;;1.71;nan;101121.63;4898287;29;20218;-65
2023/01/30 06:01:08;;;;;;;7.93;4.57;;;1.90;99.90;;;1.76;nan;101126.66;4898397;29;20241;-68
2023/01/30 06:03:35;;;;;;;10.05;4.57;;;2.00;99.90;;;1.78;nan;101130.03;4898757;29;20256;-65
2023/01/30 06:06:04;;;;;;;1.33;1.23;;;2.00;99.90;;;1.84;nan;101128.13;4898174;29;20225;-68
2023/01/30 06:08:32;;;;;;;3.15;2.13;;;2.10;99.90;;;1.85;nan;101123.84;4899105;29;20590;-65
2023/01/30 06:11:06;;;;;;;5.45;4.10;;;2.10;99.90;;;1.88;nan;101114.28;4897904;29;20240;-65
2023/01/30 06:13:35;;;;;;;3.17;2.45;;;2.10;99.90;;;1.95;nan;101107.22;4899296;29;20274;-67
2023/01/30 06:16:02;;;;;;;5.97;4.18;;;2.20;99.90;;;1.95;nan;101105.50;4894814;29;20214;-66
2023/01/30 06:18:29;;;;;;;11.93;5.25;;;2.20;99.90;;;1.96;nan;101098.63;4899830;29;20229;-65
2023/01/30 06:20:56;;;;;;;9.20;5.60;;;2.20;99.90;;;1.96;nan;101108.94;4902363;29;20237;-66
2023/01/30 06:23:23;;;;;;;9.98;5.28;;;2.20;99.90;;;1.99;nan;101086.50;4899576;29;20214;-67
2023/01/30 06:25:51;;;;;;;7.60;4.57;;;2.20;99.90;;;2.01;nan;101094.19;4903650;29;20207;-68
2023/01/30 06:28:19;;;;;;;5.82;3.72;;;2.30;99.90;;;2.06;nan;101094.91;4882158;29;20273;-66
2023/01/30 06:30:46;;;;;;;4.90;2.08;;;2.30;99.90;;;2.10;nan;101096.50;4898171;29;20226;-67
2023/01/30 06:33:14;;;;;;;5.68;4.05;;;2.40;99.90;;;2.10;nan;101097.34;4898500;29;20210;-66
2023/01/30 06:35:42;;;;;;;2.63;1.90;;;2.40;99.90;;;2.11;nan;101087.88;4893844;29;20199;-67
2023/01/30 06:38:12;;;;;;;2.42;1.98;;;2.40;99.90;;;2.15;nan;101090.31;4902454;29;20210;-66
2023/01/30 06:40:46;;;;;;;2.22;2.05;;;2.40;99.90;;;2.11;nan;101086.13;4899093;29;20242;-69
2023/01/30 06:43:13;;;;;;;1.83;1.55;;;2.40;99.90;;;2.07;nan;101073.41;4899326;29;20886;-67
2023/01/30 06:45:40;;;;;;;2.88;2.05;;;2.40;99.90;;;2.03;nan;101079.53;4907404;29;20628;-66
2023/01/30 06:48:08;;;;;;;3.00;1.75;;;2.30;99.90;;;1.95;nan;101071.22;4907401;29;20978;-66
2023/01/30 06:50:35;;;;;;;2.97;1.80;;;2.20;99.90;;;1.97;nan;101069.44;4902782;29;20242;-66
2023/01/30 06:53:05;;;;;;;2.08;1.88;;;2.20;99.90;;;1.98;nan;101050.53;4901436;29;20207;-65
2023/01/30 06:55:34;;;;;;;3.85;1.48;;;2.20;99.90;;;1.95;nan;101045.47;4896902;29;20211;-66
2023/01/30 06:58:13;;;;;;;3.33;2.10;;;2.20;99.90;;;1.90;nan;101057.63;4916679;29;20210;-69
2023/01/30 07:00:42;;;;;;;0.75;0.75;;;2.10;99.90;;;1.91;nan;101059.31;4887600;29;20237;-66
2023/01/30 07:03:15;;;;;;;0.90;0.90;;;2.10;99.90;;;1.94;nan;101057.50;4885600;29;20214;-65
2023/01/30 07:05:44;;;;;;;2.65;2.30;;;2.20;99.90;;;1.90;nan;101057.63;4897695;29;20199;-68
2023/01/30 07:08:12;;;;;;;2.28;2.17;;;2.20;99.90;;;1.91;nan;101065.31;4888845;29;20210;-66
2023/01/30 07:10:40;;;;;;;0.82;0.82;;;2.20;99.90;;;1.92;nan;101072.13;4915456;29;20242;-67
2023/01/30 07:13:07;;;;;;;1.35;1.23;;;2.10;99.90;;;1.97;nan;101074.56;4899433;29;20269;-66
2023/01/30 07:15:34;;;;;;;8.30;4.07;;;2.20;99.90;;;2.01;nan;101068.44;4885077;29;20198;-66
2023/01/30 07:18:01;;;;;;;1.20;1.20;;;2.20;99.90;;;2.05;nan;101072.59;4881155;29;20215;-65
2023/01/30 07:20:30;;;;;;;4.32;2.95;;;2.30;99.90;;;2.05;nan;101062.31;4898257;29;20230;-65
2023/01/30 07:22:57;;;;;;;1.00;1.00;;;2.30;99.90;;;2.05;nan;101057.16;4897407;29;20727;-65
2023/01/30 07:25:25;;;;;;;3.08;2.60;;;2.30;99.90;;;2.02;nan;101057.28;4899387;29;20210;-68
2023/01/30 07:27:56;;;;;;;0.80;0.80;;;2.30;99.90;;;2.05;nan;101044.28;4914214;29;20226;-65
2023/01/30 07:30:25;;;;;;;1.00;0.90;;;2.20;99.90;;;2.03;nan;101051.22;4895276;29;20297;-65
2023/01/30 07:32:54;;;;;;;1.30;0.93;;;2.30;99.90;;;2.03;nan;101043.50;4897384;29;20213;-68
2023/01/30 07:35:23;;;;;;;3.63;3.05;;;2.30;99.90;;;2.05;nan;101046.88;4880611;29;20676;-64
2023/01/30 07:37:51;;;;;;;3.85;3.08;;;2.30;99.90;;;2.05;nan;101067.47;4897879;29;20202;-68
2023/01/30 07:40:19;;;;;;;1.15;1.15;;;2.30;99.90;;;2.07;nan;101063.97;4896005;29;20266;-66
2023/01/30 07:42:59;;;;;;;4.20;1.73;;;2.30;99.90;;;2.13;nan;101080.97;4906357;29;20211;-65
2023/01/30 07:45:35;;;;;;;8.00;4.47;;;2.30;99.90;;;2.17;nan;101064.53;4880767;29;20625;-65
2023/01/30 07:48:02;;;;;;;2.30;2.10;;;2.30;99.90;;;2.18;nan;101043.03;4895559;29;20277;-66
2023/01/30 07:50:30;;;;;;;9.68;4.38;;;2.40;99.90;;;2.21;nan;101066.13;4895546;29;20234;-65
2023/01/30 07:52:57;;;;;;;4.72;3.75;;;2.40;99.90;;;2.26;nan;101066.81;4895608;29;20203;-66
2023/01/30 07:55:24;;;;;;;2.03;1.80;;;2.50;99.90;;;2.27;nan;101056.47;4896401;29;20270;-66
2023/01/30 07:57:50;;;;;;;0.70;0.70;;;2.50;99.90;;;2.29;nan;101046.13;4884909;29;20212;-69
2023/01/30 08:00:18;;;;;;;2.05;1.10;;;2.50;99.90;;;2.31;nan;101037.47;4896159;29;20238;-66
2023/01/30 08:02:45;;;;;;;8.25;5.38;;;2.50;99.90;;;2.36;nan;101052.78;4878839;29;20238;-67
2023/01/30 08:05:12;;;;;;;7.07;4.53;;;2.60;99.90;;;2.42;nan;101056.88;4877648;29;20370;-66
2023/01/30 08:07:39;;;;;;;6.47;4.45;;;2.60;99.90;;;2.44;nan;101058.50;4894216;29;20214;-67
2023/01/30 08:10:07;;;;;;;9.00;4.80;;;2.70;99.90;;;2.54;nan;101066.78;4896424;29;20269;-66
2023/01/30 08:12:41;;;;;;;7.70;5.22;;;2.80;99.90;;;2.58;nan;101065.81;4898554;29;20221;-66
2023/01/30 08:15:09;;;;;;;6.82;4.50;;;2.80;99.90;;;2.62;nan;101057.91;4893024;29;20629;-68
2023/01/30 08:17:36;;;;;;;4.93;3.63;;;2.90;99.90;;;2.64;nan;101053.53;4886408;29;20207;-66
2023/01/30 08:20:04;;;;;;;2.92;2.17;;;2.90;99.90;;;2.70;nan;101058.53;4894653;29;20297;-67
2023/01/30 08:22:31;;;;;;;3.80;3.33;;;3.00;99.90;;;2.73;nan;101065.28;4895294;29;20297;-66
2023/01/30 08:24:58;;;;;;;4.00;2.75;;;3.00;99.90;;;2.78;nan;101065.97;4900289;29;20214;-66
2023/01/30 08:27:25;;;;;;;5.00;3.63;;;3.00;99.90;;;2.84;nan;101058.91;4877765;29;20598;-68
2023/01/30 08:29:52;;;;;;;6.20;4.20;;;3.00;99.90;;;2.88;nan;101045.00;4898126;29;20237;-68
2023/01/30 08:32:19;;;;;;;5.15;4.20;;;3.10;99.90;;;2.94;nan;101042.22;4895814;29;20911;-70
2023/01/30 08:34:46;;;;;;;6.95;4.53;;;3.10;99.90;;;3.01;nan;101035.13;4903831;29;20220;-69
2023/01/30 08:37:13;;;;;;;3.45;2.20;;;3.20;99.90;;;3.10;nan;101053.72;4910961;29;20906;-65
2023/01/30 08:39:40;;;;;;;1.02;1.00;;;3.30;99.90;;;3.11;nan;101039.06;4900722;29;20679;-66
2023/01/30 08:42:07;;;;;;;2.90;1.95;;;3.30;99.90;;;3.15;nan;101046.63;4900362;29;20239;-65
2023/01/30 08:44:34;;;;;;;4.13;2.97;;;3.40;99.90;;;3.19;nan;101041.38;4895214;29;20214;-66
2023/01/30 08:47:00;;;;;;;3.08;2.78;;;3.40;99.90;;;3.22;nan;101052.41;4897045;29;20207;-66
2023/01/30 08:49:27;;;;;;;5.70;4.40;;;3.40;99.90;;;3.26;nan;101054.00;4896689;29;20202;-65
2023/01/30 08:51:54;;;;;;;5.95;3.58;;;3.50;99.90;;;3.29;nan;101060.78;4902277;29;20237;-65
2023/01/30 08:54:21;;;;;;;5.70;3.40;;;3.50;99.90;;;3.31;nan;101061.56;4894668;29;20274;-66
2023/01/30 08:56:48;;;;;;;4.03;3.20;;;3.50;99.90;;;3.34;nan;101054.59;4895719;29;20572;-65
2023/01/30 08:59:15;;;;;;;4.85;3.90;;;3.60;99.90;;;3.39;nan;101064.72;4902402;29;20207;-65
2023/01/30 09:01:42;;;;;;;1.48;1.38;;;3.60;99.90;;;3.41;nan;101062.94;4894851;29;20294;-65
2023/01/30 09:04:09;;;;;;;0.75;0.50;;;3.60;99.90;;;3.44;nan;101061.09;4895664;29;20206;-64
2023/01/30 09:06:36;;;;;;;3.47;3.15;;;3.70;99.90;;;3.50;nan;101045.38;4895268;29;20292;-63
2023/01/30 09:09:03;;;;;;;0.77;0.77;;;3.70;99.90;;;3.54;nan;101048.69;4887334;29;20695;-65
2023/01/30 09:11:30;;;;;;;1.35;1.35;;;3.80;99.90;;;3.55;nan;101042.66;4895421;29;20242;-65
2023/01/30 09:13:57;;;;;;;1.42;1.33;;;3.80;99.90;;;3.64;nan;101019.91;4904392;29;20575;-65
2023/01/30 09:16:24;;;;;;;2.10;1.90;;;3.80;99.90;;;3.77;nan;101030.59;4912874;29;20198;-66
2023/01/30 09:18:51;;;;;;;1.38;1.20;;;3.90;99.90;;;3.88;nan;101033.63;4891063;29;20577;-64
2023/01/30 09:21:18;;;;;;;1.92;1.70;;;4.00;99.90;;;4.02;nan;101030.53;4894342;29;20243;-64
2023/01/30 09:23:45;;;;;;;1.02;1.02;;;4.10;99.90;;;4.16;nan;101021.34;4894493;29;20207;-65
2023/01/30 09:26:12;;;;;;;0.95;0.95;;;4.30;99.90;;;4.33;nan;100998.25;4900190;29;20217;-64
2023/01/30 09:28:39;;;;;;;1.77;1.67;;;4.50;99.90;;;4.53;nan;101003.47;4895080;29;20215;-64
2023/01/30 09:31:06;;;;;;;1.00;0.82;;;4.70;99.90;;;4.76;nan;100996.47;4889372;29;20241;-65
2023/01/30 09:33:33;;;;;;;3.25;2.00;;;4.90;99.90;;;4.89;nan;101006.25;4902319;29;20206;-64
2023/01/30 09:36:00;;;;;;;2.53;2.30;;;5.10;99.90;;;5.04;nan;101008.19;4899204;29;20207;-64
2023/01/30 09:38:27;;;;;;;2.15;1.95;;;5.20;99.90;;;5.13;nan;101018.09;4880305;29;20207;-64
2023/01/30 09:40:59;;;;;;;0.45;0.45;;;5.30;99.90;;;5.21;nan;101017.78;4900821;29;20242;-64
2023/01/30 09:44:08;;;;;;;1.90;1.80;;;5.40;99.90;;;5.34;nan;101013.75;4894615;29;20681;-65
2023/01/30 09:47:10;;;;;;;1.85;1.75;;;5.50;99.90;;;5.46;nan;101008.03;4884213;29;20211;-65
2023/01/30 09:50:30;;;;;;;1.55;1.45;;;5.60;99.90;;;5.43;nan;101005.59;4884653;29;20916;-64
2023/01/30 09:53:43;;;;;;;1.20;1.08;;;5.70;99.90;;;5.41;nan;101009.97;4892488;29;20214;-64
2023/01/30 09:56:10;;;;;;;1.05;0.95;;;5.60;99.90;;;5.46;nan;101003.69;4827233;29;20209;-64
2023/01/30 09:59:00;;;;;;;1.48;0.70;;;5.60;99.90;;;5.44;nan;101023.63;4885518;29;20243;-63
2023/01/30 10:01:39;;;;;;;1.05;0.95;;;5.60;99.90;;;5.48;nan;101011.38;4894760;29;20357;-64
2023/01/30 10:04:23;;;;;;;1.17;0.85;;;5.70;99.90;;;5.40;nan;101010.91;4875250;29;20210;-64
2023/01/30 10:07:25;;;;;;;2.00;1.90;;;5.60;99.90;;;5.36;nan;101020.56;4878580;29;20596;-63
2023/01/30 10:10:21;;;;;;;1.17;1.10;;;5.50;99.90;;;5.41;nan;101012.56;4892893;29;20211;-64
2023/01/30 10:13:09;;;;;;;1.45;1.45;;;5.60;99.90;;;5.45;nan;100990.84;4898027;29;20337;-65
2023/01/30 10:16:08;;;;;;;2.00;1.90;;;5.70;99.90;;;5.48;nan;100980.34;4879200;29;20215;-65
2023/01/30 10:18:38;;;;;;;2.40;1.20;;;5.70;99.90;;;5.50;nan;100978.50;4880248;29;20660;-65
2023/01/30 10:21:26;;;;;;;0.55;0.55;;;5.70;99.90;;;5.50;nan;100984.53;4895204;29;20266;-65
2023/01/30 10:24:23;;;;;;;0.63;0.63;;;5.70;99.90;;;5.59;nan;100992.78;4896656;29;20221;-65
2023/01/30 10:26:51;;;;;;;0.85;0.85;;;5.80;99.90;;;5.68;nan;101001.00;4898363;29;20690;-65
2023/01/30 10:29:38;;;;;;;3.08;1.65;;;5.80;99.90;;;5.83;nan;101002.88;4882190;29;20810;-67
2023/01/30 10:32:24;;;;;;;0.80;0.73;;;6.00;99.90;;;6.04;nan;100999.31;4880917;29;20735;-66
2023/01/30 10:34:58;;;;;;;1.83;1.70;;;6.20;99.90;;;6.47;nan;101011.03;4895972;29;20206;-64
2023/01/30 10:38:02;;;;;;;0.50;0.50;;;6.60;99.90;;;6.57;nan;100996.69;4897327;29;20627;-66
2023/01/30 10:40:43;;;;;;;2.10;2.00;;;6.70;99.90;;;6.50;nan;101004.84;4898430;29;20246;-65
2023/01/30 10:43:35;;;;;;;0.53;0.40;;;6.70;99.90;;;6.42;nan;100992.25;4899805;29;20252;-65
2023/01/30 10:46:37;;;;;;;1.63;1.63;;;6.60;99.90;;;6.35;nan;100990.88;4895609;29;20642;-66
2023/01/30 10:49:27;;;;;;;0.68;0.65;;;6.50;99.90;;;6.24;nan;100995.72;4891127;29;20641;-65
2023/01/30 10:52:41;;;;;;;1.17;1.07;;;6.50;99.90;;;6.23;nan;100979.38;4876249;29;20242;-66
2023/01/30 10:55:35;;;;;;;0.50;0.50;;;6.40;99.90;;;6.21;nan;100968.25;4894059;29;20642;-66
2023/01/30 10:58:32;;;;;;;1.17;1.13;;;6.40;99.90;;;6.25;nan;100979.28;4891999;29;21540;-66
2023/01/30 11:01:09;;;;;;;0.70;0.70;;;6.40;99.90;;;6.34;nan;100978.00;4893852;29;20729;-63
2023/01/30 11:03:56;;;;;;;0.63;0.63;;;6.50;99.90;;;6.36;nan;100976.16;4884390;29;20648;-66
2023/01/30 11:06:24;;;;;;;1.73;0.67;;;6.50;99.90;;;6.45;nan;100975.72;4897850;29;20773;-66
2023/01/30 11:08:54;;;;;;;0.93;0.60;;;6.60;99.90;;;6.53;nan;100990.00;4899542;29;20681;-66
2023/01/30 11:11:47;;;;;;;0.97;0.90;;;6.70;99.90;;;6.64;nan;100994.63;4899930;29;20669;-66